Time;durP1;ratioP1;P1;durP2;ratioP2;P2;SDS_P1;SDS_P2;PMS_P1;PMS_P2;Temp;Humidity;BMP_temperature;BMP_pressure;BME280_temperature;BME280_humidity;BME280_pressure;Samples;Min_cycle;Max_cycle;Signal;HPM_P1;HPM_P2
2023/05/15 00:07:16;;;;;;;2.83;1.35;;;;;;;12.42;62.45;100796.22;15543462;28;20050;-55
2023/05/15 00:14:50;;;;;;;2.35;1.27;;;;;;;12.25;62.60;100786.00;15535935;28;20162;-55
2023/05/15 00:22:24;;;;;;;3.87;1.90;;;;;;;12.08;62.86;100779.53;15552361;28;20397;-55
2023/05/15 00:29:57;;;;;;;3.55;1.95;;;;;;;10.34;66.85;100782.31;15558290;28;20561;-57
2023/05/15 00:37:31;;;;;;;4.07;2.00;;;;;;;11.07;64.52;100761.47;15554870;28;20060;-58
2023/05/15 00:45:08;;;;;;;5.63;1.67;;;;;;;11.39;63.50;100753.50;15526759;28;20132;-56
2023/05/15 00:53:06;;;;;;;2.65;1.75;;;;;;;11.17;64.25;100742.22;15548357;28;20137;-58
2023/05/15 01:00:43;;;;;;;3.15;1.73;;;;;;;11.18;64.23;100741.19;15545004;28;20128;-58
2023/05/15 01:08:43;;;;;;;3.53;1.50;;;;;;;10.84;64.55;100710.97;15527178;28;20049;-56
2023/05/15 01:16:17;;;;;;;2.13;1.42;;;;;;;10.71;65.22;100722.56;15555197;28;20096;-53
2023/05/15 01:24:20;;;;;;;2.72;1.17;;;;;;;10.84;65.35;100710.13;15592590;22;20048;-50
2023/05/15 01:31:58;;;;;;;2.75;1.92;;;;;;;10.32;66.60;100709.25;15659002;28;20047;-48
2023/05/15 01:39:33;;;;;;;2.35;1.17;;;;;;;10.54;66.19;100715.19;15692432;28;20434;-50
2023/05/15 01:47:12;;;;;;;5.43;2.35;;;;;;;10.16;66.10;100711.28;15674882;28;20060;-47
2023/05/15 01:54:48;;;;;;;1.92;1.45;;;;;;;10.36;65.67;100667.56;15694950;28;20052;-47
2023/05/15 02:02:27;;;;;;;2.80;2.03;;;;;;;10.45;65.75;100698.50;15713275;28;20494;-49
2023/05/15 02:10:03;;;;;;;7.80;1.67;;;;;;;10.11;66.27;100691.50;15652787;28;20057;-48
2023/05/15 02:17:37;;;;;;;3.47;2.13;;;;;;;10.18;65.94;100687.78;15724216;28;20052;-49
2023/05/15 02:25:11;;;;;;;2.72;1.65;;;;;;;10.15;65.91;100682.00;15672481;28;20406;-50
2023/05/15 02:32:50;;;;;;;4.77;2.20;;;;;;;10.27;65.07;100669.66;15673942;28;20067;-53
2023/05/15 02:40:28;;;;;;;4.18;2.10;;;;;;;10.11;66.47;100657.44;15660326;28;20202;-48
2023/05/15 02:48:17;;;;;;;3.67;2.35;;;;;;;9.98;66.25;100662.88;15682382;28;20052;-48
2023/05/15 02:55:51;;;;;;;4.32;2.15;;;;;;;9.61;66.88;100643.69;15644681;28;20049;-50
2023/05/15 03:03:27;;;;;;;4.37;1.80;;;;;;;9.64;66.04;100653.16;15664728;28;20029;-51
2023/05/15 03:10:59;;;;;;;3.50;2.13;;;;;;;9.66;65.88;100633.19;15660796;28;20044;-51
2023/05/15 03:18:33;;;;;;;3.53;2.03;;;;;;;8.96;67.25;100639.91;15666906;28;20045;-48
2023/05/15 03:26:06;;;;;;;4.53;2.05;;;;;;;8.45;68.84;100653.72;15660080;28;20051;-54
2023/05/15 03:33:49;;;;;;;4.75;2.60;;;;;;;9.25;66.94;100645.94;15698870;28;20047;-55
2023/05/15 03:41:28;;;;;;;5.57;2.75;;;;;;;9.05;68.29;100628.00;15673253;28;20098;-48
2023/05/15 03:49:11;;;;;;;2.90;1.85;;;;;;;8.75;69.70;100623.97;15696362;28;20623;-50
2023/05/15 03:57:07;;;;;;;2.08;1.75;;;;;;;9.29;68.01;100620.41;15670709;28;20068;-47
2023/05/15 04:04:58;;;;;;;4.65;2.00;;;;;;;9.55;67.43;100609.66;15690006;28;20048;-51
2023/05/15 04:12:38;;;;;;;8.43;2.47;;;;;;;9.63;67.07;100614.81;15683796;28;20053;-47
2023/05/15 04:20:37;;;;;;;3.85;2.53;;;;;;;9.59;66.60;100628.84;15700450;28;20060;-52
2023/05/15 04:28:31;;;;;;;3.10;2.13;;;;;;;9.10;68.65;100611.31;15679486;28;20456;-50
2023/05/15 04:36:21;;;;;;;5.70;2.40;;;;;;;9.32;68.74;100601.22;15694104;28;20124;-50
2023/05/15 04:44:07;;;;;;;4.07;1.98;;;;;;;9.27;69.42;100598.34;15700257;28;20055;-48
2023/05/15 04:51:47;;;;;;;2.42;1.95;;;;;;;9.75;68.63;100603.50;15680525;28;20127;-50
2023/05/15 04:59:26;;;;;;;4.78;2.45;;;;;;;10.51;67.69;100597.53;15680719;28;20135;-48
2023/05/15 05:07:19;;;;;;;3.50;3.08;;;;;;;11.46;66.73;100598.38;15699704;28;20120;-51
2023/05/15 05:15:00;;;;;;;4.10;2.88;;;;;;;12.00;65.27;100589.63;15712882;28;20037;-50
2023/05/15 05:22:41;;;;;;;5.00;2.97;;;;;;;12.62;65.16;100597.59;15699554;28;20043;-52
2023/05/15 05:30:39;;;;;;;5.50;2.58;;;;;;;13.24;63.30;100582.03;15690608;28;20099;-51
2023/05/15 05:38:16;;;;;;;5.75;2.75;;;;;;;14.09;61.18;100572.66;15725376;28;20049;-50
2023/05/15 05:45:57;;;;;;;5.82;3.08;;;;;;;15.51;56.27;100574.47;15710710;28;20032;-48
2023/05/15 05:53:48;;;;;;;6.45;2.90;;;;;;;17.28;52.25;100566.06;15722303;28;20527;-50
2023/05/15 06:01:32;;;;;;;4.32;2.97;;;;;;;16.68;52.81;100564.38;15725629;28;20045;-49
2023/05/15 06:09:27;;;;;;;7.95;3.45;;;;;;;18.14;50.24;100543.28;15696015;28;20055;-51
2023/05/15 06:17:23;;;;;;;7.60;3.40;;;;;;;18.99;47.61;100543.00;15685103;28;20067;-52
2023/05/15 06:24:58;;;;;;;6.38;2.97;;;;;;;20.34;41.84;100530.50;15714842;28;20460;-53
2023/05/15 06:32:34;;;;;;;3.80;2.30;;;;;;;19.82;43.74;100529.88;15691061;28;20056;-49
2023/05/15 06:40:27;;;;;;;3.58;1.98;;;;;;;20.00;45.61;100517.53;15698930;28;20059;-48
2023/05/15 06:48:24;;;;;;;5.00;2.22;;;;;;;20.18;44.25;100518.00;15700997;28;20059;-55
2023/05/15 06:56:18;;;;;;;7.47;2.35;;;;;;;20.92;42.31;100510.78;15690243;28;20052;-52
2023/05/15 07:03:57;;;;;;;4.82;2.15;;;;;;;21.48;40.86;100488.47;15708909;28;20044;-52
2023/05/15 07:11:32;;;;;;;6.20;2.85;;;;;;;21.41;41.38;100491.56;15660049;28;20044;-50
2023/05/15 07:19:08;;;;;;;5.57;2.15;;;;;;;21.37;40.46;100483.13;15721852;28;20041;-53
2023/05/15 07:26:42;;;;;;;4.40;2.20;;;;;;;20.58;41.23;100476.94;15678410;28;20045;-54
2023/05/15 07:34:18;;;;;;;5.35;1.85;;;;;;;21.56;42.13;100469.53;15689888;28;20123;-53
2023/05/15 07:41:52;;;;;;;3.22;1.75;;;;;;;21.21;38.97;100475.31;15678661;28;20045;-51
2023/05/15 07:49:24;;;;;;;2.88;1.40;;;;;;;20.49;41.02;100470.44;15676146;28;20056;-49
2023/05/15 07:56:58;;;;;;;;;;;;;;;20.26;41.18;100466.47;15692842;28;20045;-52
2023/05/15 08:04:34;;;;;;;3.20;1.55;;;;;;;20.72;40.78;100457.19;15671475;28;19921;-54
2023/05/15 08:12:20;;;;;;;1.63;1.25;;;;;;;21.23;41.17;100445.84;15705641;28;20126;-52
2023/05/15 08:19:56;;;;;;;2.25;1.42;;;;;;;21.29;38.62;100445.47;15678899;28;20140;-50
2023/05/15 08:27:33;;;;;;;13.75;2.30;;;;;;;21.08;40.66;100430.44;15684091;28;20049;-51
2023/05/15 08:35:07;;;;;;;4.30;1.52;;;;;;;20.63;40.44;100435.97;15687220;28;20101;-50
2023/05/15 08:42:45;;;;;;;4.60;1.83;;;;;;;21.09;41.55;100416.50;15707143;28;20045;-52
2023/05/15 08:50:18;;;;;;;2.70;1.52;;;;;;;20.70;40.56;100415.75;15684509;28;20082;-52
2023/05/15 08:57:54;;;;;;;7.20;1.67;;;;;;;20.59;39.82;100412.28;15703738;28;20079;-52
2023/05/15 09:05:28;;;;;;;1.77;1.13;;;;;;;20.41;41.69;100415.66;15684325;28;20506;-49
2023/05/15 09:13:03;;;;;;;2.92;1.88;;;;;;;20.60;41.64;100406.53;15697862;28;20039;-50
2023/05/15 09:20:50;;;;;;;2.83;1.60;;;;;;;20.50;41.40;100408.53;15686208;28;20123;-53
2023/05/15 09:28:29;;;;;;;2.75;1.45;;;;;;;20.51;40.29;100386.44;15663949;28;20051;-48
2023/05/15 09:36:05;;;;;;;2.20;1.17;;;;;;;20.69;39.63;100387.66;15681364;28;20502;-51
2023/05/15 09:43:55;;;;;;;1.52;1.20;;;;;;;20.98;40.89;100389.56;15686755;28;20054;-48
2023/05/15 09:51:34;;;;;;;2.47;1.27;;;;;;;20.64;40.15;100380.34;15705769;28;20047;-52
2023/05/15 09:59:15;;;;;;;2.05;1.27;;;;;;;20.38;42.35;100382.44;15698172;28;20036;-49
2023/05/15 10:07:08;;;;;;;2.17;1.35;;;;;;;21.04;39.22;100367.41;15669574;28;20198;-52
2023/05/15 10:14:43;;;;;;;3.33;1.60;;;;;;;21.70;38.58;100368.56;15694056;28;20068;-51
2023/05/15 10:22:21;;;;;;;3.85;2.15;;;;;;;21.72;38.74;100369.09;15675542;28;20087;-49
2023/05/15 10:30:00;;;;;;;4.90;1.48;;;;;;;21.65;38.83;100363.19;15710518;28;20120;-51
2023/05/15 10:37:33;;;;;;;7.75;1.65;;;;;;;21.92;39.68;100348.88;15693694;28;20037;-52
2023/05/15 10:45:09;;;;;;;3.75;1.77;;;;;;;22.33;38.36;100340.06;15712234;28;20054;-53
2023/05/15 10:52:42;;;;;;;9.23;1.95;;;;;;;23.45;39.56;100324.31;15707223;28;20116;-49
2023/05/15 11:00:50;;;;;;;5.80;1.73;;;;;;;23.86;37.42;100316.03;15710725;28;20052;-54
2023/05/15 11:08:26;;;;;;;4.53;2.10;;;;;;;24.21;36.25;100312.78;15686112;28;20137;-52
2023/05/15 11:16:00;;;;;;;2.17;1.55;;;;;;;23.13;36.99;100306.91;15689873;28;20051;-49
2023/05/15 11:23:38;;;;;;;4.40;2.03;;;;;;;22.96;36.47;100297.69;15695774;28;20044;-53
2023/05/15 11:31:12;;;;;;;6.53;1.48;;;;;;;22.41;37.25;100282.78;15704857;28;20045;-49
2023/05/15 11:38:52;;;;;;;2.60;1.25;;;;;;;22.08;37.57;100281.94;15688784;28;20029;-51
2023/05/15 11:46:27;;;;;;;3.13;1.70;;;;;;;21.58;37.34;100280.78;15707009;28;20421;-49
2023/05/15 11:54:07;;;;;;;2.50;1.50;;;;;;;21.73;38.58;100217.75;15708928;28;20441;-50
2023/05/15 12:01:42;;;;;;;2.88;1.60;;;;;;;21.46;38.07;100261.31;15689667;28;20127;-50
2023/05/15 12:09:16;;;;;;;3.55;1.88;;;;;;;21.92;38.13;100266.91;15687667;28;20136;-47
2023/05/15 12:16:52;;;;;;;2.70;1.50;;;;;;;21.83;37.80;100255.84;15703610;28;20041;-50
2023/05/15 12:24:44;;;;;;;3.17;1.45;;;;;;;22.33;36.34;100249.84;15699968;28;20580;-55
2023/05/15 12:32:18;;;;;;;1.63;1.20;;;;;;;23.16;35.75;100253.47;15688064;28;20064;-51
2023/05/15 12:40:06;;;;;;;3.75;1.55;;;;;;;25.26;28.88;100236.09;15703965;28;20068;-50
2023/05/15 12:47:42;;;;;;;2.58;1.10;;;;;;;25.01;29.32;100223.09;15698242;28;20124;-53
2023/05/15 12:55:18;;;;;;;1.35;0.70;;;;;;;26.86;26.08;100219.50;15683474;28;20098;-52
2023/05/15 13:02:55;;;;;;;1.23;0.70;;;;;;;29.06;24.56;100214.06;15698431;28;20044;-51
2023/05/15 13:10:28;;;;;;;1.35;0.93;;;;;;;28.11;24.12;100196.66;15681889;28;20347;-51
2023/05/15 13:18:03;;;;;;;1.00;0.60;;;;;;;26.67;24.28;100195.16;15687501;28;20268;-51
2023/05/15 13:25:36;;;;;;;1.05;0.80;;;;;;;25.98;26.58;100185.19;15698896;28;20041;-51
2023/05/15 13:33:11;;;;;;;2.20;0.98;;;;;;;25.17;26.62;100180.34;15696179;28;20036;-53
2023/05/15 13:40:45;;;;;;;1.63;0.70;;;;;;;25.05;29.32;100180.16;15681216;28;20099;-52
2023/05/15 13:48:19;;;;;;;2.13;0.77;;;;;;;24.37;29.77;100176.88;15655037;28;20045;-52
2023/05/15 13:55:52;;;;;;;1.33;0.73;;;;;;;23.43;30.90;100184.13;15701028;28;20093;-50
2023/05/15 14:03:27;;;;;;;2.40;1.30;;;;;;;23.13;32.90;100194.66;15642463;28;20152;-53
2023/05/15 14:11:01;;;;;;;1.60;0.90;;;;;;;22.63;32.43;100202.78;15661876;28;20037;-51
2023/05/15 14:18:35;;;;;;;5.45;0.80;;;;;;;21.02;37.09;100240.53;15691564;28;20037;-50
2023/05/15 14:26:08;;;;;;;0.65;0.40;;;;;;;18.81;43.01;100253.38;15688891;28;20091;-52
2023/05/15 14:33:42;;;;;;;;;;;;;;;18.63;45.96;100264.81;15714048;28;20041;-51
2023/05/15 14:41:15;;;;;;;0.85;0.52;;;;;;;18.96;46.72;100266.91;15691714;28;19920;-50
2023/05/15 14:48:49;;;;;;;;;;;;;;;18.94;45.57;100268.28;15707984;28;20048;-50
2023/05/15 14:56:22;;;;;;;2.50;0.93;;;;;;;18.31;46.47;100258.59;15706520;28;19920;-49
2023/05/15 15:03:56;;;;;;;1.63;0.70;;;;;;;18.25;47.11;100265.13;15705709;28;20132;-52
2023/05/15 15:11:29;;;;;;;1.13;0.68;;;;;;;18.29;46.18;100260.78;15691666;28;20068;-53
2023/05/15 15:19:03;;;;;;;;;;;;;;;18.43;45.57;100260.22;15667313;28;20489;-53
2023/05/15 15:26:35;;;;;;;1.33;0.60;;;;;;;18.32;46.14;100253.97;15666392;28;19925;-50
2023/05/15 15:34:10;;;;;;;2.22;1.10;;;;;;;19.04;44.47;100258.19;15662820;28;20082;-51
2023/05/15 15:41:42;;;;;;;2.83;0.60;;;;;;;19.19;44.69;100275.53;15674232;28;20082;-49
2023/05/15 15:49:16;;;;;;;1.38;0.63;;;;;;;18.61;45.74;100276.78;15667071;28;20077;-49
2023/05/15 15:56:50;;;;;;;1.15;0.50;;;;;;;18.40;46.09;100286.03;15685329;28;20497;-54
2023/05/15 16:04:25;;;;;;;2.45;0.65;;;;;;;19.37;45.43;100292.03;15695080;28;20119;-52
2023/05/15 16:11:57;;;;;;;1.77;1.02;;;;;;;19.49;45.21;100307.22;15692272;28;20048;-51
2023/05/15 16:19:32;;;;;;;0.85;0.68;;;;;;;19.46;44.63;100296.91;15678683;28;20044;-50
2023/05/15 16:27:05;;;;;;;5.88;0.40;;;;;;;19.10;44.96;100299.78;15683281;28;20040;-50
2023/05/15 16:34:41;;;;;;;0.90;0.60;;;;;;;19.39;45.03;100299.91;15677769;28;20397;-52
2023/05/15 16:42:14;;;;;;;0.63;0.60;;;;;;;18.92;46.26;100312.06;15676562;28;20049;-50
2023/05/15 16:49:48;;;;;;;;;;;;;;;18.76;47.72;100322.16;15670424;28;20095;-52
2023/05/15 16:57:23;;;;;;;1.63;1.10;;;;;;;17.76;52.11;100338.13;15675125;28;19921;-52
2023/05/15 17:04:57;;;;;;;2.35;1.02;;;;;;;15.89;62.70;100344.72;15686995;28;20045;-53
2023/05/15 17:12:30;;;;;;;2.22;1.23;;;;;;;16.02;65.27;100333.47;15657165;28;20098;-52
2023/05/15 17:20:05;;;;;;;2.75;1.00;;;;;;;15.03;69.22;100324.47;15691288;28;20048;-52
2023/05/15 17:27:40;;;;;;;1.58;1.00;;;;;;;15.29;66.79;100306.69;15697835;28;20060;-47
2023/05/15 17:35:14;;;;;;;1.30;0.65;;;;;;;15.08;67.92;100296.69;15666462;28;20125;-49
2023/05/15 17:42:50;;;;;;;4.28;1.55;;;;;;;16.04;65.88;100293.41;15654311;28;20047;-50
2023/05/15 17:50:24;;;;;;;1.63;0.77;;;;;;;16.16;65.51;100287.84;15716783;28;20122;-53
2023/05/15 17:57:57;;;;;;;1.30;0.88;;;;;;;15.61;67.24;100327.59;15698203;28;20033;-53
2023/05/15 18:05:31;;;;;;;1.23;1.00;;;;;;;15.82;66.91;100321.38;15691076;28;20048;-50
2023/05/15 18:13:04;;;;;;;2.97;1.75;;;;;;;15.68;66.47;100324.75;15687104;28;20128;-51
2023/05/15 18:20:40;;;;;;;2.00;1.07;;;;;;;15.71;66.35;100319.63;15698921;28;20076;-49
2023/05/15 18:28:29;;;;;;;4.18;1.58;;;;;;;15.77;66.83;100325.94;15664021;28;20059;-53
2023/05/15 18:36:07;;;;;;;3.20;1.73;;;;;;;16.27;65.39;100330.16;15654070;28;20049;-53
2023/05/15 18:43:42;;;;;;;4.72;1.83;;;;;;;15.96;66.49;100350.75;15680223;28;20049;-49
2023/05/15 18:51:17;;;;;;;3.85;1.40;;;;;;;15.91;67.13;100369.66;15683160;28;20497;-53
2023/05/15 18:58:50;;;;;;;2.33;1.60;;;;;;;15.67;67.07;100378.03;15693439;28;20049;-51
2023/05/15 19:06:24;;;;;;;6.00;1.65;;;;;;;15.89;66.98;100388.81;15672547;28;20033;-52
2023/05/15 19:13:57;;;;;;;3.25;1.10;;;;;;;16.13;66.07;100389.34;15687167;28;20049;-53
2023/05/15 19:21:31;;;;;;;3.80;2.10;;;;;;;15.85;66.95;100371.47;15713251;28;20056;-51
2023/05/15 19:29:05;;;;;;;3.40;1.88;;;;;;;15.88;67.38;100379.09;15685477;23;20049;-58
2023/05/15 19:36:49;;;;;;;2.80;1.50;;;;;;;14.74;71.19;100380.53;15689744;28;20353;-55
2023/05/15 19:44:22;;;;;;;2.88;1.52;;;;;;;14.58;72.24;100385.91;15725672;28;20052;-53
2023/05/15 19:51:56;;;;;;;2.15;1.17;;;;;;;14.73;71.06;100386.97;15707549;28;20136;-49
2023/05/15 19:59:29;;;;;;;2.50;1.85;;;;;;;14.26;72.72;100389.13;15700598;28;20032;-51
2023/05/15 20:15:03;;;;;;;1.45;1.33;;;;;;;15.37;68.73;100407.38;15701109;28;20083;-52
2023/05/15 20:22:39;;;;;;;;;;;;;;;14.88;69.82;100402.63;15695155;28;20055;-48
2023/05/15 20:30:11;;;;;;;3.10;1.70;;;;;;;14.65;70.50;100427.94;15723158;28;20008;-51
2023/05/15 20:37:46;;;;;;;1.92;1.45;;;;;;;14.79;69.13;100425.72;15718265;28;20041;-56
2023/05/15 20:45:19;;;;;;;2.65;1.52;;;;;;;14.70;68.90;100425.31;15711265;28;20055;-52
2023/05/15 20:52:56;;;;;;;;;;;;;;;14.41;69.64;100424.53;15738612;28;20056;-54
2023/05/15 21:00:30;;;;;;;2.17;1.58;;;;;;;13.94;70.00;100424.72;15742269;28;20034;-54
2023/05/15 21:08:45;;;;;;;4.38;2.13;;;;;;;14.28;68.87;100414.84;15694345;28;20102;-51
2023/05/15 21:16:20;;;;;;;2.25;1.27;;;;;;;14.04;69.49;100416.00;15701797;28;20071;-55
2023/05/15 21:24:03;;;;;;;4.90;1.95;;;;;;;13.84;69.80;100407.50;15743890;28;20068;-52
2023/05/15 21:31:40;;;;;;;1.77;1.07;;;;;;;13.74;69.83;100406.25;15738541;28;20051;-54
2023/05/15 21:39:16;;;;;;;4.75;1.75;;;;;;;14.04;69.04;100424.09;15721785;28;20421;-49
2023/05/15 21:46:49;;;;;;;2.13;1.05;;;;;;;13.97;68.65;100426.94;15695675;28;20064;-53
2023/05/15 21:54:37;;;;;;;4.00;1.88;;;;;;;14.22;68.02;100448.22;15717918;28;20136;-50
2023/05/15 22:02:21;;;;;;;1.77;1.52;;;;;;;14.49;66.89;100450.31;15750636;28;20081;-51
2023/05/15 22:10:21;;;;;;;2.67;1.58;;;;;;;14.07;68.59;100445.19;15718408;28;20114;-54
2023/05/15 22:17:54;;;;;;;7.63;2.10;;;;;;;14.03;68.14;100419.75;15711970;28;20566;-52
2023/05/15 22:25:30;;;;;;;1.23;1.10;;;;;;;13.98;68.33;100444.75;15687021;28;20442;-50
2023/05/15 22:33:03;;;;;;;3.60;1.73;;;;;;;14.11;67.77;100450.94;15653945;28;20040;-48
2023/05/15 22:40:39;;;;;;;3.63;1.80;;;;;;;13.86;68.82;100448.56;15657280;28;20064;-54
2023/05/15 22:48:12;;;;;;;2.78;1.70;;;;;;;14.13;68.22;100467.69;15708813;28;20131;-52
2023/05/15 22:55:46;;;;;;;3.33;1.67;;;;;;;13.91;68.09;100473.75;15761187;28;20052;-52
2023/05/15 23:03:20;;;;;;;3.20;2.25;;;;;;;13.82;68.15;100471.69;15699547;28;20051;-57
2023/05/15 23:10:56;;;;;;;2.65;2.13;;;;;;;13.48;69.52;100476.91;15700897;28;20523;-54
2023/05/15 23:18:48;;;;;;;3.47;1.70;;;;;;;13.65;68.29;100474.28;15729184;28;20052;-54
2023/05/15 23:26:22;;;;;;;5.17;2.57;;;;;;;13.71;67.86;100471.47;15713366;28;20106;-55
2023/05/15 23:33:55;;;;;;;3.22;2.05;;;;;;;13.87;67.03;100471.78;15766660;28;20036;-55
2023/05/15 23:41:29;;;;;;;5.17;1.87;;;;;;;13.45;68.44;100494.34;15699856;28;20053;-56
2023/05/15 23:49:02;;;;;;;3.17;2.30;;;;;;;13.27;68.88;100497.97;15686205;28;20476;-54
2023/05/15 23:56:36;;;;;;;3.58;2.13;;;;;;;13.61;68.15;100500.09;15739415;28;20045;-51
